sensor_id;sensor_type;location;lat;lon;timestamp;pressure;altitude;pressure_sealevel;temperature;humidity
11268;BME280;72685;47.474;9.416;2023-10-13T00:00:33;95744.66;;;16.94;48.80
11268;BME280;72685;47.474;9.416;2023-10-13T00:03:03;95741.16;;;16.81;50.04
11268;BME280;72685;47.474;9.416;2023-10-13T00:05:29;95743.97;;;16.85;49.43
11268;BME280;72685;47.474;9.416;2023-10-13T00:07:59;95743.41;;;16.67;52.50
11268;BME280;72685;47.474;9.416;2023-10-13T00:10:30;95746.66;;;16.61;51.76
11268;BME280;72685;47.474;9.416;2023-10-13T00:12:56;95746.22;;;16.59;50.95
11268;BME280;72685;47.474;9.416;2023-10-13T00:15:47;95742.50;;;16.63;49.94
11268;BME280;72685;47.474;9.416;2023-10-13T00:18:32;95743.28;;;16.64;49.90
11268;BME280;72685;47.474;9.416;2023-10-13T00:21:06;95745.66;;;16.65;49.75
11268;BME280;72685;47.474;9.416;2023-10-13T00:23:38;95756.09;;;16.55;50.98
11268;BME280;72685;47.474;9.416;2023-10-13T00:26:04;95748.66;;;16.39;51.86
11268;BME280;72685;47.474;9.416;2023-10-13T00:28:34;95744.56;;;16.21;52.89
11268;BME280;72685;47.474;9.416;2023-10-13T00:31:11;95739.50;;;16.20;52.81
11268;BME280;72685;47.474;9.416;2023-10-13T00:33:38;95742.19;;;16.20;51.51
11268;BME280;72685;47.474;9.416;2023-10-13T00:36:05;95739.38;;;16.16;51.65
11268;BME280;72685;47.474;9.416;2023-10-13T00:38:32;95749.72;;;16.14;51.26
11268;BME280;72685;47.474;9.416;2023-10-13T00:40:57;95739.50;;;16.08;51.59
11268;BME280;72685;47.474;9.416;2023-10-13T00:43:31;95739.00;;;16.06;52.48
11268;BME280;72685;47.474;9.416;2023-10-13T00:46:00;95734.28;;;16.03;52.01
11268;BME280;72685;47.474;9.416;2023-10-13T00:48:31;95732.34;;;15.91;52.12
11268;BME280;72685;47.474;9.416;2023-10-13T00:51:04;95736.81;;;15.87;52.16
11268;BME280;72685;47.474;9.416;2023-10-13T00:53:37;95738.59;;;15.83;52.23
11268;BME280;72685;47.474;9.416;2023-10-13T00:56:05;95730.88;;;15.81;51.93
11268;BME280;72685;47.474;9.416;2023-10-13T00:58:44;95731.94;;;15.68;53.13
11268;BME280;72685;47.474;9.416;2023-10-13T01:01:11;95726.03;;;15.54;53.13
11268;BME280;72685;47.474;9.416;2023-10-13T01:03:45;95724.47;;;15.53;54.64
11268;BME280;72685;47.474;9.416;2023-10-13T01:06:11;95723.56;;;15.49;53.67
11268;BME280;72685;47.474;9.416;2023-10-13T01:08:37;95720.84;;;15.49;53.83
11268;BME280;72685;47.474;9.416;2023-10-13T01:11:04;95721.56;;;15.58;52.66
11268;BME280;72685;47.474;9.416;2023-10-13T01:13:33;95725.50;;;15.61;52.57
11268;BME280;72685;47.474;9.416;2023-10-13T01:16:02;95714.69;;;15.49;54.04
11268;BME280;72685;47.474;9.416;2023-10-13T01:18:28;95711.38;;;15.43;53.81
11268;BME280;72685;47.474;9.416;2023-10-13T01:20:54;95722.56;;;15.54;53.11
11268;BME280;72685;47.474;9.416;2023-10-13T01:23:25;95722.56;;;15.54;53.33
11268;BME280;72685;47.474;9.416;2023-10-13T01:25:53;95719.91;;;15.45;54.12
11268;BME280;72685;47.474;9.416;2023-10-13T01:28:19;95714.72;;;15.40;53.54
11268;BME280;72685;47.474;9.416;2023-10-13T01:30:45;95715.66;;;15.44;53.55
11268;BME280;72685;47.474;9.416;2023-10-13T01:33:15;95716.94;;;15.38;55.38
11268;BME280;72685;47.474;9.416;2023-10-13T01:35:41;95717.28;;;15.36;54.80
11268;BME280;72685;47.474;9.416;2023-10-13T01:38:15;95710.66;;;15.34;55.46
11268;BME280;72685;47.474;9.416;2023-10-13T01:40:40;95711.31;;;15.31;55.67
11268;BME280;72685;47.474;9.416;2023-10-13T01:43:08;95714.91;;;15.35;56.36
11268;BME280;72685;47.474;9.416;2023-10-13T01:45:37;95709.28;;;15.28;56.72
11268;BME280;72685;47.474;9.416;2023-10-13T01:48:11;95708.75;;;15.14;57.39
11268;BME280;72685;47.474;9.416;2023-10-13T01:50:41;95706.72;;;15.11;57.67
11268;BME280;72685;47.474;9.416;2023-10-13T01:53:07;95702.66;;;15.05;56.99
11268;BME280;72685;47.474;9.416;2023-10-13T01:55:42;95699.81;;;15.01;57.31
11268;BME280;72685;47.474;9.416;2023-10-13T01:58:14;95702.81;;;15.00;57.83
11268;BME280;72685;47.474;9.416;2023-10-13T02:00:45;95701.94;;;14.96;56.34
11268;BME280;72685;47.474;9.416;2023-10-13T02:03:13;95698.38;;;15.04;55.49
11268;BME280;72685;47.474;9.416;2023-10-13T02:05:46;95698.91;;;15.18;54.23
11268;BME280;72685;47.474;9.416;2023-10-13T02:10:50;95702.53;;;15.22;55.25
11268;BME280;72685;47.474;9.416;2023-10-13T02:13:16;95694.50;;;15.13;55.38
11268;BME280;72685;47.474;9.416;2023-10-13T02:15:46;95695.28;;;15.14;54.75
11268;BME280;72685;47.474;9.416;2023-10-13T02:18:15;95696.66;;;15.20;54.18
11268;BME280;72685;47.474;9.416;2023-10-13T02:20:53;95693.66;;;15.21;54.86
11268;BME280;72685;47.474;9.416;2023-10-13T02:23:30;95690.69;;;15.14;56.06
11268;BME280;72685;47.474;9.416;2023-10-13T02:25:56;95688.16;;;15.18;56.81
11268;BME280;72685;47.474;9.416;2023-10-13T02:28:37;95684.59;;;15.05;57.19
11268;BME280;72685;47.474;9.416;2023-10-13T02:31:03;95679.16;;;14.93;58.22
11268;BME280;72685;47.474;9.416;2023-10-13T02:33:30;95680.91;;;14.89;57.92
11268;BME280;72685;47.474;9.416;2023-10-13T02:35:59;95681.56;;;14.86;56.28
11268;BME280;72685;47.474;9.416;2023-10-13T02:38:28;95681.34;;;14.70;57.53
11268;BME280;72685;47.474;9.416;2023-10-13T02:41:12;95677.16;;;14.61;57.51
11268;BME280;72685;47.474;9.416;2023-10-13T02:43:44;95686.31;;;14.60;57.62
11268;BME280;72685;47.474;9.416;2023-10-13T02:46:09;95679.50;;;14.62;56.81
11268;BME280;72685;47.474;9.416;2023-10-13T02:48:34;95678.66;;;14.70;56.98
11268;BME280;72685;47.474;9.416;2023-10-13T02:51:08;95679.44;;;14.71;56.65
11268;BME280;72685;47.474;9.416;2023-10-13T02:53:47;95678.84;;;14.65;57.48
11268;BME280;72685;47.474;9.416;2023-10-13T02:56:16;95672.66;;;14.65;56.81
11268;BME280;72685;47.474;9.416;2023-10-13T02:58:49;95678.09;;;14.56;57.25
11268;BME280;72685;47.474;9.416;2023-10-13T03:01:19;95678.25;;;14.60;58.00
11268;BME280;72685;47.474;9.416;2023-10-13T03:03:51;95679.69;;;14.57;58.92
11268;BME280;72685;47.474;9.416;2023-10-13T03:06:20;95670.97;;;14.60;58.68
11268;BME280;72685;47.474;9.416;2023-10-13T03:09:04;95681.72;;;14.60;59.20
11268;BME280;72685;47.474;9.416;2023-10-13T03:11:40;95675.09;;;14.58;60.18
11268;BME280;72685;47.474;9.416;2023-10-13T03:14:14;95678.44;;;14.55;58.30
11268;BME280;72685;47.474;9.416;2023-10-13T03:16:53;95681.78;;;14.52;60.19
11268;BME280;72685;47.474;9.416;2023-10-13T03:19:19;95683.41;;;14.44;58.82
11268;BME280;72685;47.474;9.416;2023-10-13T03:21:45;95681.81;;;14.43;58.30
11268;BME280;72685;47.474;9.416;2023-10-13T03:24:21;95685.00;;;14.37;59.83
11268;BME280;72685;47.474;9.416;2023-10-13T03:27:02;95682.97;;;14.34;58.24
11268;BME280;72685;47.474;9.416;2023-10-13T03:29:40;95676.50;;;14.26;58.65
11268;BME280;72685;47.474;9.416;2023-10-13T03:32:10;95677.78;;;14.20;59.01
11268;BME280;72685;47.474;9.416;2023-10-13T03:34:39;95673.38;;;14.15;58.71
11268;BME280;72685;47.474;9.416;2023-10-13T03:37:23;95678.59;;;14.12;58.58
11268;BME280;72685;47.474;9.416;2023-10-13T03:40:12;95675.72;;;14.17;57.62
11268;BME280;72685;47.474;9.416;2023-10-13T03:45:32;95679.06;;;14.14;59.22
11268;BME280;72685;47.474;9.416;2023-10-13T03:48:04;95675.31;;;14.06;59.64
11268;BME280;72685;47.474;9.416;2023-10-13T03:50:39;95678.66;;;13.95;59.23
11268;BME280;72685;47.474;9.416;2023-10-13T03:53:14;95661.97;;;13.81;60.53
11268;BME280;72685;47.474;9.416;2023-10-13T03:55:40;95673.84;;;13.71;60.36
11268;BME280;72685;47.474;9.416;2023-10-13T03:58:05;95660.72;;;13.78;60.90
11268;BME280;72685;47.474;9.416;2023-10-13T04:00:32;95663.06;;;13.79;60.80
11268;BME280;72685;47.474;9.416;2023-10-13T04:02:58;95656.91;;;13.79;60.31
11268;BME280;72685;47.474;9.416;2023-10-13T04:05:41;95661.63;;;13.91;59.09
11268;BME280;72685;47.474;9.416;2023-10-13T04:08:26;95661.47;;;13.78;60.38
11268;BME280;72685;47.474;9.416;2023-10-13T04:10:53;95655.03;;;13.71;60.73
11268;BME280;72685;47.474;9.416;2023-10-13T04:13:19;95657.56;;;13.67;61.67
11268;BME280;72685;47.474;9.416;2023-10-13T04:16:04;95652.25;;;13.59;61.07
11268;BME280;72685;47.474;9.416;2023-10-13T04:18:48;95649.56;;;13.42;63.28
11268;BME280;72685;47.474;9.416;2023-10-13T04:21:23;95650.69;;;13.32;63.37
11268;BME280;72685;47.474;9.416;2023-10-13T04:24:07;95654.97;;;13.33;64.23
11268;BME280;72685;47.474;9.416;2023-10-13T04:26:52;95644.84;;;13.39;61.78
11268;BME280;72685;47.474;9.416;2023-10-13T04:29:36;95637.56;;;13.48;61.56
11268;BME280;72685;47.474;9.416;2023-10-13T04:32:17;95636.78;;;13.47;62.23
11268;BME280;72685;47.474;9.416;2023-10-13T04:35:00;95637.75;;;13.43;63.12
11268;BME280;72685;47.474;9.416;2023-10-13T04:37:38;95639.78;;;13.46;61.55
11268;BME280;72685;47.474;9.416;2023-10-13T04:40:20;95633.94;;;13.44;62.75
11268;BME280;72685;47.474;9.416;2023-10-13T04:42:50;95639.31;;;13.52;61.38
11268;BME280;72685;47.474;9.416;2023-10-13T04:45:22;95637.88;;;13.55;61.88
11268;BME280;72685;47.474;9.416;2023-10-13T04:48:01;95638.47;;;13.60;60.57
11268;BME280;72685;47.474;9.416;2023-10-13T04:50:47;95629.03;;;13.54;61.87
11268;BME280;72685;47.474;9.416;2023-10-13T04:53:17;95628.06;;;13.50;60.94
11268;BME280;72685;47.474;9.416;2023-10-13T04:56:00;95628.28;;;13.37;62.57
11268;BME280;72685;47.474;9.416;2023-10-13T04:58:25;95623.56;;;13.34;61.65
11268;BME280;72685;47.474;9.416;2023-10-13T05:01:03;95619.31;;;13.24;62.31
11268;BME280;72685;47.474;9.416;2023-10-13T05:03:48;95624.84;;;13.10;63.31
11268;BME280;72685;47.474;9.416;2023-10-13T05:06:32;95623.56;;;13.08;63.99
11268;BME280;72685;47.474;9.416;2023-10-13T05:09:09;95629.69;;;13.00;64.75
11268;BME280;72685;47.474;9.416;2023-10-13T05:11:53;95625.94;;;12.92;63.67
11268;BME280;72685;47.474;9.416;2023-10-13T05:14:38;95623.09;;;12.89;64.97
11268;BME280;72685;47.474;9.416;2023-10-13T05:17:22;95626.88;;;12.88;64.86
11268;BME280;72685;47.474;9.416;2023-10-13T05:20:07;95627.19;;;12.95;64.31
11268;BME280;72685;47.474;9.416;2023-10-13T05:22:52;95618.19;;;12.91;64.91
11268;BME280;72685;47.474;9.416;2023-10-13T05:25:36;95623.06;;;12.97;63.01
11268;BME280;72685;47.474;9.416;2023-10-13T05:28:20;95632.69;;;13.07;62.23
11268;BME280;72685;47.474;9.416;2023-10-13T05:31:04;95628.13;;;13.07;63.67
11268;BME280;72685;47.474;9.416;2023-10-13T05:33:48;95622.31;;;13.14;62.65
11268;BME280;72685;47.474;9.416;2023-10-13T05:36:33;95625.00;;;13.14;63.06
11268;BME280;72685;47.474;9.416;2023-10-13T05:39:17;95630.38;;;13.14;61.51
11268;BME280;72685;47.474;9.416;2023-10-13T05:42:01;95628.91;;;13.42;59.42
11268;BME280;72685;47.474;9.416;2023-10-13T05:44:44;95629.19;;;13.41;59.68
11268;BME280;72685;47.474;9.416;2023-10-13T05:47:42;95626.84;;;13.39;61.52
11268;BME280;72685;47.474;9.416;2023-10-13T05:50:11;95627.50;;;13.36;62.24
11268;BME280;72685;47.474;9.416;2023-10-13T05:52:49;95633.66;;;13.28;61.35
11268;BME280;72685;47.474;9.416;2023-10-13T05:55:22;95632.72;;;13.24;61.96
11268;BME280;72685;47.474;9.416;2023-10-13T05:58:06;95621.19;;;13.15;62.09
11268;BME280;72685;47.474;9.416;2023-10-13T06:00:50;95621.84;;;13.20;60.83
11268;BME280;72685;47.474;9.416;2023-10-13T06:03:33;95624.31;;;13.34;60.53
11268;BME280;72685;47.474;9.416;2023-10-13T06:06:17;95620.69;;;13.39;60.17
11268;BME280;72685;47.474;9.416;2023-10-13T06:09:01;95622.44;;;13.35;61.48
11268;BME280;72685;47.474;9.416;2023-10-13T06:11:45;95628.13;;;13.33;61.93
11268;BME280;72685;47.474;9.416;2023-10-13T06:14:28;95631.41;;;13.47;59.65
11268;BME280;72685;47.474;9.416;2023-10-13T06:17:12;95623.81;;;13.58;59.21
11268;BME280;72685;47.474;9.416;2023-10-13T06:19:56;95629.13;;;13.66;58.34
11268;BME280;72685;47.474;9.416;2023-10-13T06:22:40;95631.34;;;13.73;58.94
11268;BME280;72685;47.474;9.416;2023-10-13T06:25:24;95626.09;;;13.76;58.62
11268;BME280;72685;47.474;9.416;2023-10-13T06:28:08;95628.78;;;13.76;59.67
11268;BME280;72685;47.474;9.416;2023-10-13T06:30:59;95629.38;;;13.91;58.30
11268;BME280;72685;47.474;9.416;2023-10-13T06:33:26;95622.88;;;14.00;57.63
11268;BME280;72685;47.474;9.416;2023-10-13T06:35:57;95627.69;;;14.15;57.05
11268;BME280;72685;47.474;9.416;2023-10-13T06:38:23;95624.91;;;14.32;56.46
11268;BME280;72685;47.474;9.416;2023-10-13T06:40:49;95621.28;;;14.37;56.90
11268;BME280;72685;47.474;9.416;2023-10-13T06:43:17;95628.50;;;14.45;57.00
11268;BME280;72685;47.474;9.416;2023-10-13T06:45:47;95625.41;;;14.55;56.70
11268;BME280;72685;47.474;9.416;2023-10-13T06:48:24;95619.66;;;14.65;56.45
11268;BME280;72685;47.474;9.416;2023-10-13T06:50:50;95622.91;;;14.79;57.12
11268;BME280;72685;47.474;9.416;2023-10-13T06:53:18;95626.50;;;14.83;56.42
11268;BME280;72685;47.474;9.416;2023-10-13T06:55:44;95628.34;;;14.92;57.79
11268;BME280;72685;47.474;9.416;2023-10-13T06:58:13;95633.50;;;14.97;57.00
11268;BME280;72685;47.474;9.416;2023-10-13T07:00:40;95625.97;;;15.11;56.53
11268;BME280;72685;47.474;9.416;2023-10-13T07:03:07;95634.75;;;15.20;57.03
11268;BME280;72685;47.474;9.416;2023-10-13T07:05:43;95628.97;;;15.30;58.75
11268;BME280;72685;47.474;9.416;2023-10-13T07:08:09;95629.28;;;15.49;58.60
11268;BME280;72685;47.474;9.416;2023-10-13T07:10:50;95633.56;;;15.50;57.75
11268;BME280;72685;47.474;9.416;2023-10-13T07:13:17;95631.88;;;15.58;58.04
11268;BME280;72685;47.474;9.416;2023-10-13T07:15:45;95632.56;;;15.67;58.71
11268;BME280;72685;47.474;9.416;2023-10-13T07:18:12;95629.16;;;15.91;59.47
11268;BME280;72685;47.474;9.416;2023-10-13T07:20:39;95631.53;;;16.04;57.91
11268;BME280;72685;47.474;9.416;2023-10-13T07:23:10;95635.00;;;16.17;58.77
11268;BME280;72685;47.474;9.416;2023-10-13T07:25:43;95634.09;;;16.25;60.11
11268;BME280;72685;47.474;9.416;2023-10-13T07:28:09;95634.22;;;16.40;59.71
11268;BME280;72685;47.474;9.416;2023-10-13T07:30:36;95634.81;;;16.58;60.47
11268;BME280;72685;47.474;9.416;2023-10-13T07:33:07;95632.09;;;16.70;59.67
11268;BME280;72685;47.474;9.416;2023-10-13T07:35:38;95635.00;;;16.77;59.94
11268;BME280;72685;47.474;9.416;2023-10-13T07:38:03;95630.47;;;16.93;60.85
11268;BME280;72685;47.474;9.416;2023-10-13T07:40:33;95632.03;;;16.94;59.98
11268;BME280;72685;47.474;9.416;2023-10-13T07:42:58;95633.78;;;17.15;58.27
11268;BME280;72685;47.474;9.416;2023-10-13T07:45:29;95631.72;;;17.24;59.84
11268;BME280;72685;47.474;9.416;2023-10-13T07:48:09;95635.09;;;17.48;59.24
11268;BME280;72685;47.474;9.416;2023-10-13T07:50:42;95640.47;;;17.61;59.58
11268;BME280;72685;47.474;9.416;2023-10-13T07:53:07;95641.00;;;17.66;59.32
11268;BME280;72685;47.474;9.416;2023-10-13T07:55:48;95636.31;;;17.63;58.01
11268;BME280;72685;47.474;9.416;2023-10-13T07:58:20;95642.53;;;17.79;57.86
11268;BME280;72685;47.474;9.416;2023-10-13T08:00:45;95645.56;;;17.93;57.35
11268;BME280;72685;47.474;9.416;2023-10-13T08:03:14;95631.34;;;17.96;55.73
11268;BME280;72685;47.474;9.416;2023-10-13T08:05:42;95638.44;;;18.17;54.09
11268;BME280;72685;47.474;9.416;2023-10-13T08:08:24;95639.03;;;18.26;54.56
11268;BME280;72685;47.474;9.416;2023-10-13T08:11:15;95638.44;;;18.32;54.38
11268;BME280;72685;47.474;9.416;2023-10-13T08:13:57;95637.72;;;18.35;51.40
11268;BME280;72685;47.474;9.416;2023-10-13T08:16:36;95638.28;;;18.57;53.79
11268;BME280;72685;47.474;9.416;2023-10-13T08:19:14;95635.66;;;18.95;55.95
11268;BME280;72685;47.474;9.416;2023-10-13T08:21:41;95639.41;;;18.90;51.94
11268;BME280;72685;47.474;9.416;2023-10-13T08:24:15;95637.50;;;18.91;50.78
11268;BME280;72685;47.474;9.416;2023-10-13T08:26:41;95634.34;;;18.89;50.45
11268;BME280;72685;47.474;9.416;2023-10-13T08:29:25;95635.56;;;18.91;50.69
11268;BME280;72685;47.474;9.416;2023-10-13T08:31:54;95632.88;;;19.11;50.99
11268;BME280;72685;47.474;9.416;2023-10-13T08:34:32;95624.94;;;19.02;51.40
11268;BME280;72685;47.474;9.416;2023-10-13T08:37:05;95631.16;;;19.22;50.71
11268;BME280;72685;47.474;9.416;2023-10-13T08:39:58;95631.72;;;19.12;51.26
11268;BME280;72685;47.474;9.416;2023-10-13T08:42:31;95624.47;;;19.16;50.54
11268;BME280;72685;47.474;9.416;2023-10-13T08:45:08;95626.44;;;19.76;52.62
11268;BME280;72685;47.474;9.416;2023-10-13T08:47:55;95615.97;;;20.43;50.39
11268;BME280;72685;47.474;9.416;2023-10-13T08:50:47;95620.16;;;20.63;50.08
11268;BME280;72685;47.474;9.416;2023-10-13T08:56:05;95612.50;;;21.25;50.24
11268;BME280;72685;47.474;9.416;2023-10-13T08:58:57;95613.81;;;21.08;47.44
11268;BME280;72685;47.474;9.416;2023-10-13T09:01:35;95612.22;;;21.07;46.39
11268;BME280;72685;47.474;9.416;2023-10-13T09:04:19;95607.81;;;21.25;48.51
11268;BME280;72685;47.474;9.416;2023-10-13T09:06:56;95614.53;;;21.68;48.62
11268;BME280;72685;47.474;9.416;2023-10-13T09:09:20;95606.28;;;21.61;47.26
11268;BME280;72685;47.474;9.416;2023-10-13T09:12:15;95605.84;;;21.55;48.68
11268;BME280;72685;47.474;9.416;2023-10-13T09:14:51;95607.00;;;21.21;47.84
11268;BME280;72685;47.474;9.416;2023-10-13T09:17:27;95598.22;;;21.68;48.31
11268;BME280;72685;47.474;9.416;2023-10-13T09:20:07;95602.13;;;21.71;47.01
11268;BME280;72685;47.474;9.416;2023-10-13T09:22:52;95599.22;;;21.90;47.49
11268;BME280;72685;47.474;9.416;2023-10-13T09:25:28;95602.06;;;22.00;47.39
11268;BME280;72685;47.474;9.416;2023-10-13T09:28:13;95604.53;;;22.16;46.24
11268;BME280;72685;47.474;9.416;2023-10-13T09:30:51;95602.91;;;22.08;45.88
11268;BME280;72685;47.474;9.416;2023-10-13T09:33:23;95597.53;;;22.19;47.26
11268;BME280;72685;47.474;9.416;2023-10-13T09:35:59;95596.38;;;22.20;46.82
11268;BME280;72685;47.474;9.416;2023-10-13T09:38:28;95600.72;;;22.28;46.73
11268;BME280;72685;47.474;9.416;2023-10-13T09:40:54;95596.00;;;22.18;47.12
11268;BME280;72685;47.474;9.416;2023-10-13T09:43:26;95598.28;;;22.15;47.57
11268;BME280;72685;47.474;9.416;2023-10-13T09:45:58;95593.44;;;22.39;47.82
11268;BME280;72685;47.474;9.416;2023-10-13T09:48:32;95589.50;;;22.33;48.19
11268;BME280;72685;47.474;9.416;2023-10-13T09:51:02;95584.94;;;22.47;47.37
11268;BME280;72685;47.474;9.416;2023-10-13T09:53:34;95586.97;;;22.61;46.73
11268;BME280;72685;47.474;9.416;2023-10-13T09:56:07;95586.22;;;22.64;47.68
11268;BME280;72685;47.474;9.416;2023-10-13T09:59:01;95587.38;;;22.63;48.56
11268;BME280;72685;47.474;9.416;2023-10-13T10:01:38;95587.38;;;22.63;48.78
11268;BME280;72685;47.474;9.416;2023-10-13T10:04:13;95586.06;;;22.43;49.27
11268;BME280;72685;47.474;9.416;2023-10-13T10:06:53;95582.03;;;22.77;47.81
11268;BME280;72685;47.474;9.416;2023-10-13T10:09:26;95575.03;;;22.76;48.03
11268;BME280;72685;47.474;9.416;2023-10-13T10:12:38;95575.81;;;22.80;47.66
11268;BME280;72685;47.474;9.416;2023-10-13T10:17:46;95566.91;;;22.29;49.85
11268;BME280;72685;47.474;9.416;2023-10-13T10:20:13;95563.66;;;22.12;50.26
11268;BME280;72685;47.474;9.416;2023-10-13T10:22:56;95558.19;;;22.63;50.91
11268;BME280;72685;47.474;9.416;2023-10-13T10:25:33;95553.59;;;22.71;54.25
11268;BME280;72685;47.474;9.416;2023-10-13T10:28:05;95554.56;;;23.17;52.84
11268;BME280;72685;47.474;9.416;2023-10-13T10:30:32;95547.59;;;23.16;52.51
11268;BME280;72685;47.474;9.416;2023-10-13T10:33:01;95546.00;;;23.15;49.17
11268;BME280;72685;47.474;9.416;2023-10-13T10:35:33;95547.94;;;23.15;52.46
11268;BME280;72685;47.474;9.416;2023-10-13T10:38:15;95547.69;;;23.45;49.75
11268;BME280;72685;47.474;9.416;2023-10-13T10:40:52;95538.34;;;23.56;48.17
11268;BME280;72685;47.474;9.416;2023-10-13T10:43:27;95534.44;;;23.43;48.33
11268;BME280;72685;47.474;9.416;2023-10-13T10:45:55;95522.41;;;23.80;47.19
11268;BME280;72685;47.474;9.416;2023-10-13T10:48:27;95532.38;;;23.15;48.53
11268;BME280;72685;47.474;9.416;2023-10-13T10:51:00;95527.81;;;23.55;49.22
11268;BME280;72685;47.474;9.416;2023-10-13T10:53:34;95515.66;;;23.31;51.02
11268;BME280;72685;47.474;9.416;2023-10-13T10:56:09;95508.38;;;23.70;49.39
11268;BME280;72685;47.474;9.416;2023-10-13T10:58:48;95516.97;;;23.83;50.26
11268;BME280;72685;47.474;9.416;2023-10-13T11:01:21;95516.91;;;23.55;47.20
11268;BME280;72685;47.474;9.416;2023-10-13T11:03:53;95508.38;;;23.81;48.32
11268;BME280;72685;47.474;9.416;2023-10-13T11:06:26;95508.75;;;23.90;47.77
11268;BME280;72685;47.474;9.416;2023-10-13T11:09:27;95500.97;;;23.96;47.67
11268;BME280;72685;47.474;9.416;2023-10-13T11:12:14;95497.44;;;23.85;47.30
11268;BME280;72685;47.474;9.416;2023-10-13T11:14:44;95495.13;;;23.87;47.39
11268;BME280;72685;47.474;9.416;2023-10-13T11:17:19;95490.81;;;24.07;46.21
11268;BME280;72685;47.474;9.416;2023-10-13T11:19:50;95483.03;;;24.05;45.34
11268;BME280;72685;47.474;9.416;2023-10-13T11:22:20;95480.25;;;23.45;45.06
11268;BME280;72685;47.474;9.416;2023-10-13T11:25:02;95480.31;;;23.77;45.79
11268;BME280;72685;47.474;9.416;2023-10-13T11:27:41;95479.13;;;23.96;45.19
11268;BME280;72685;47.474;9.416;2023-10-13T11:30:22;95479.09;;;24.03;44.52
11268;BME280;72685;47.474;9.416;2023-10-13T11:33:01;95474.44;;;24.25;45.19
11268;BME280;72685;47.474;9.416;2023-10-13T11:35:34;95478.75;;;24.18;44.85
11268;BME280;72685;47.474;9.416;2023-10-13T11:38:22;95469.38;;;24.16;44.73
11268;BME280;72685;47.474;9.416;2023-10-13T11:43:46;95464.28;;;23.93;44.06
11268;BME280;72685;47.474;9.416;2023-10-13T11:46:24;95459.59;;;24.08;44.71
11268;BME280;72685;47.474;9.416;2023-10-13T11:49:09;95454.91;;;24.33;44.36
11268;BME280;72685;47.474;9.416;2023-10-13T11:51:38;95458.81;;;24.36;44.37
11268;BME280;72685;47.474;9.416;2023-10-13T11:54:03;95450.59;;;24.36;43.20
11268;BME280;72685;47.474;9.416;2023-10-13T11:56:29;95441.97;;;24.51;41.52
11268;BME280;72685;47.474;9.416;2023-10-13T11:58:54;95439.72;;;24.11;42.69
11268;BME280;72685;47.474;9.416;2023-10-13T12:01:26;95432.63;;;24.42;43.68
11268;BME280;72685;47.474;9.416;2023-10-13T12:04:11;95436.50;;;24.51;42.95
11268;BME280;72685;47.474;9.416;2023-10-13T12:06:56;95418.50;;;24.68;42.10
11268;BME280;72685;47.474;9.416;2023-10-13T12:09:43;95410.38;;;24.47;43.33
11268;BME280;72685;47.474;9.416;2023-10-13T12:12:29;95403.72;;;24.44;43.46
11268;BME280;72685;47.474;9.416;2023-10-13T12:14:55;95408.09;;;24.03;41.58
11268;BME280;72685;47.474;9.416;2023-10-13T12:17:26;95399.13;;;24.31;40.58
11268;BME280;72685;47.474;9.416;2023-10-13T12:20:06;95406.91;;;24.29;42.23
11268;BME280;72685;47.474;9.416;2023-10-13T12:22:38;95403.06;;;24.05;42.17
11268;BME280;72685;47.474;9.416;2023-10-13T12:25:08;95393.66;;;24.23;42.84
11268;BME280;72685;47.474;9.416;2023-10-13T12:27:52;95391.75;;;23.92;41.67
11268;BME280;72685;47.474;9.416;2023-10-13T12:30:23;95393.31;;;24.18;43.16
11268;BME280;72685;47.474;9.416;2023-10-13T12:33:01;95383.16;;;24.15;44.22
11268;BME280;72685;47.474;9.416;2023-10-13T12:35:39;95383.53;;;24.17;43.81
11268;BME280;72685;47.474;9.416;2023-10-13T12:38:24;95378.91;;;23.79;44.97
11268;BME280;72685;47.474;9.416;2023-10-13T12:41:20;95375.81;;;23.66;43.87
11268;BME280;72685;47.474;9.416;2023-10-13T12:44:05;95378.16;;;23.64;43.78
11268;BME280;72685;47.474;9.416;2023-10-13T12:46:50;95376.97;;;23.68;43.60
11268;BME280;72685;47.474;9.416;2023-10-13T12:49:34;95371.53;;;23.54;44.25
11268;BME280;72685;47.474;9.416;2023-10-13T12:52:17;95371.13;;;23.59;44.53
11268;BME280;72685;47.474;9.416;2023-10-13T12:54:46;95367.59;;;23.27;43.85
11268;BME280;72685;47.474;9.416;2023-10-13T12:57:35;95375.41;;;23.25;46.45
11268;BME280;72685;47.474;9.416;2023-10-13T13:00:09;95365.66;;;23.10;45.12
11268;BME280;72685;47.474;9.416;2023-10-13T13:02:42;95366.78;;;23.02;44.70
11268;BME280;72685;47.474;9.416;2023-10-13T13:05:08;95364.06;;;22.84;46.21
11268;BME280;72685;47.474;9.416;2023-10-13T13:07:40;95358.59;;;22.84;46.38
11268;BME280;72685;47.474;9.416;2023-10-13T13:10:13;95355.84;;;22.77;46.41
11268;BME280;72685;47.474;9.416;2023-10-13T13:12:40;95356.19;;;22.65;47.10
11268;BME280;72685;47.474;9.416;2023-10-13T13:15:06;95353.44;;;22.58;47.24
11268;BME280;72685;47.474;9.416;2023-10-13T13:17:38;95349.59;;;22.66;46.43
11268;BME280;72685;47.474;9.416;2023-10-13T13:20:07;95346.09;;;22.69;46.83
11268;BME280;72685;47.474;9.416;2023-10-13T13:22:40;95348.38;;;22.60;46.61
11268;BME280;72685;47.474;9.416;2023-10-13T13:25:06;95338.25;;;22.60;45.10
11268;BME280;72685;47.474;9.416;2023-10-13T13:27:36;95331.63;;;22.51;46.23
11268;BME280;72685;47.474;9.416;2023-10-13T13:30:03;95324.25;;;22.55;45.72
11268;BME280;72685;47.474;9.416;2023-10-13T13:32:38;95327.34;;;22.57;46.23
11268;BME280;72685;47.474;9.416;2023-10-13T13:35:04;95330.47;;;22.62;47.39
11268;BME280;72685;47.474;9.416;2023-10-13T13:37:33;95319.19;;;22.60;46.92
11268;BME280;72685;47.474;9.416;2023-10-13T13:39:58;95317.22;;;22.50;45.60
11268;BME280;72685;47.474;9.416;2023-10-13T13:42:40;95314.50;;;22.50;45.64
11268;BME280;72685;47.474;9.416;2023-10-13T13:45:11;95312.66;;;22.69;45.79
11268;BME280;72685;47.474;9.416;2023-10-13T13:47:37;95300.19;;;22.82;46.54
11268;BME280;72685;47.474;9.416;2023-10-13T13:50:02;95299.03;;;22.83;46.53
11268;BME280;72685;47.474;9.416;2023-10-13T13:52:32;95296.69;;;22.81;46.26